sensor_id;sensor_type;location;lat;lon;timestamp;P1;durP1;ratioP1;P2;durP2;ratioP2
6376;SDS011;3221;48.858;10.128;2024-02-21T00:00:39;8.93;;;4.20;;
6376;SDS011;3221;48.858;10.128;2024-02-21T00:03:07;8.13;;;4.23;;
6376;SDS011;3221;48.858;10.128;2024-02-21T00:05:34;8.97;;;4.30;;
6376;SDS011;3221;48.858;10.128;2024-02-21T00:08:01;8.60;;;4.30;;
6376;SDS011;3221;48.858;10.128;2024-02-21T00:10:29;12.77;;;5.60;;
6376;SDS011;3221;48.858;10.128;2024-02-21T00:12:58;9.33;;;4.63;;
6376;SDS011;3221;48.858;10.128;2024-02-21T00:15:28;10.83;;;5.67;;
6376;SDS011;3221;48.858;10.128;2024-02-21T00:17:55;12.50;;;5.63;;
6376;SDS011;3221;48.858;10.128;2024-02-21T00:20:22;8.73;;;5.23;;
6376;SDS011;3221;48.858;10.128;2024-02-21T00:22:49;8.07;;;5.23;;
6376;SDS011;3221;48.858;10.128;2024-02-21T00:25:16;9.57;;;5.17;;
6376;SDS011;3221;48.858;10.128;2024-02-21T00:27:43;9.93;;;5.53;;
6376;SDS011;3221;48.858;10.128;2024-02-21T00:30:10;9.77;;;5.03;;
6376;SDS011;3221;48.858;10.128;2024-02-21T00:32:37;9.60;;;4.97;;
6376;SDS011;3221;48.858;10.128;2024-02-21T00:35:04;9.53;;;5.27;;
6376;SDS011;3221;48.858;10.128;2024-02-21T00:37:31;11.47;;;5.87;;
6376;SDS011;3221;48.858;10.128;2024-02-21T00:39:58;9.50;;;5.10;;
6376;SDS011;3221;48.858;10.128;2024-02-21T00:42:25;10.13;;;4.97;;
6376;SDS011;3221;48.858;10.128;2024-02-21T00:44:52;9.33;;;4.77;;
6376;SDS011;3221;48.858;10.128;2024-02-21T00:47:19;11.23;;;5.17;;
6376;SDS011;3221;48.858;10.128;2024-02-21T00:49:45;7.93;;;5.40;;
6376;SDS011;3221;48.858;10.128;2024-02-21T00:52:12;9.23;;;5.67;;
6376;SDS011;3221;48.858;10.128;2024-02-21T00:54:39;10.97;;;5.30;;
6376;SDS011;3221;48.858;10.128;2024-02-21T00:57:18;9.93;;;5.60;;
6376;SDS011;3221;48.858;10.128;2024-02-21T00:59:46;9.27;;;5.10;;
6376;SDS011;3221;48.858;10.128;2024-02-21T01:02:13;8.90;;;5.00;;
6376;SDS011;3221;48.858;10.128;2024-02-21T01:04:40;9.97;;;4.73;;
6376;SDS011;3221;48.858;10.128;2024-02-21T01:07:07;12.60;;;4.90;;
6376;SDS011;3221;48.858;10.128;2024-02-21T01:09:34;10.33;;;4.67;;
6376;SDS011;3221;48.858;10.128;2024-02-21T01:12:00;18.10;;;6.37;;
6376;SDS011;3221;48.858;10.128;2024-02-21T01:14:27;10.37;;;5.20;;
6376;SDS011;3221;48.858;10.128;2024-02-21T01:16:54;11.83;;;5.20;;
6376;SDS011;3221;48.858;10.128;2024-02-21T01:19:22;13.70;;;5.70;;
6376;SDS011;3221;48.858;10.128;2024-02-21T01:21:49;8.53;;;4.83;;
6376;SDS011;3221;48.858;10.128;2024-02-21T01:24:16;11.03;;;5.80;;
6376;SDS011;3221;48.858;10.128;2024-02-21T01:26:42;10.33;;;5.63;;
6376;SDS011;3221;48.858;10.128;2024-02-21T01:29:09;8.67;;;5.27;;
6376;SDS011;3221;48.858;10.128;2024-02-21T01:31:36;9.97;;;5.17;;
6376;SDS011;3221;48.858;10.128;2024-02-21T01:34:03;10.27;;;5.00;;
6376;SDS011;3221;48.858;10.128;2024-02-21T01:36:30;9.33;;;4.60;;
6376;SDS011;3221;48.858;10.128;2024-02-21T01:38:57;7.90;;;4.63;;
6376;SDS011;3221;48.858;10.128;2024-02-21T01:41:24;8.60;;;4.83;;
6376;SDS011;3221;48.858;10.128;2024-02-21T01:43:51;7.57;;;4.20;;
6376;SDS011;3221;48.858;10.128;2024-02-21T01:46:18;8.53;;;4.30;;
6376;SDS011;3221;48.858;10.128;2024-02-21T01:48:45;8.10;;;4.53;;
6376;SDS011;3221;48.858;10.128;2024-02-21T01:51:13;7.90;;;4.33;;
6376;SDS011;3221;48.858;10.128;2024-02-21T01:53:43;8.33;;;4.10;;
6376;SDS011;3221;48.858;10.128;2024-02-21T01:56:12;7.80;;;4.17;;
6376;SDS011;3221;48.858;10.128;2024-02-21T01:58:40;7.50;;;4.07;;
6376;SDS011;3221;48.858;10.128;2024-02-21T02:01:09;5.50;;;3.67;;
6376;SDS011;3221;48.858;10.128;2024-02-21T02:03:36;8.20;;;4.20;;
6376;SDS011;3221;48.858;10.128;2024-02-21T02:06:07;9.40;;;3.93;;
6376;SDS011;3221;48.858;10.128;2024-02-21T02:08:34;7.67;;;3.63;;
6376;SDS011;3221;48.858;10.128;2024-02-21T02:11:02;9.93;;;4.10;;
6376;SDS011;3221;48.858;10.128;2024-02-21T02:13:29;6.97;;;3.70;;
6376;SDS011;3221;48.858;10.128;2024-02-21T02:15:56;7.33;;;3.87;;
6376;SDS011;3221;48.858;10.128;2024-02-21T02:18:23;9.50;;;4.07;;
6376;SDS011;3221;48.858;10.128;2024-02-21T02:20:50;6.90;;;3.73;;
6376;SDS011;3221;48.858;10.128;2024-02-21T02:25:55;7.53;;;3.73;;
6376;SDS011;3221;48.858;10.128;2024-02-21T02:28:22;7.73;;;3.73;;
6376;SDS011;3221;48.858;10.128;2024-02-21T02:30:50;7.83;;;4.10;;
6376;SDS011;3221;48.858;10.128;2024-02-21T02:33:17;9.40;;;3.87;;
6376;SDS011;3221;48.858;10.128;2024-02-21T02:35:44;8.23;;;4.03;;
6376;SDS011;3221;48.858;10.128;2024-02-21T02:38:12;7.43;;;4.00;;
6376;SDS011;3221;48.858;10.128;2024-02-21T02:40:40;7.03;;;3.77;;
6376;SDS011;3221;48.858;10.128;2024-02-21T02:43:08;8.30;;;4.63;;
6376;SDS011;3221;48.858;10.128;2024-02-21T02:45:35;7.60;;;4.10;;
6376;SDS011;3221;48.858;10.128;2024-02-21T02:48:02;8.73;;;4.23;;
6376;SDS011;3221;48.858;10.128;2024-02-21T02:50:30;6.43;;;3.80;;
6376;SDS011;3221;48.858;10.128;2024-02-21T02:52:57;7.73;;;3.80;;
6376;SDS011;3221;48.858;10.128;2024-02-21T02:55:24;7.50;;;3.50;;
6376;SDS011;3221;48.858;10.128;2024-02-21T02:57:52;6.57;;;3.70;;
6376;SDS011;3221;48.858;10.128;2024-02-21T03:00:19;6.37;;;3.53;;
6376;SDS011;3221;48.858;10.128;2024-02-21T03:02:46;8.40;;;3.57;;
6376;SDS011;3221;48.858;10.128;2024-02-21T03:05:16;8.43;;;3.70;;
6376;SDS011;3221;48.858;10.128;2024-02-21T03:07:45;6.03;;;3.53;;
6376;SDS011;3221;48.858;10.128;2024-02-21T03:10:13;6.50;;;3.40;;
6376;SDS011;3221;48.858;10.128;2024-02-21T03:12:42;5.63;;;3.20;;
6376;SDS011;3221;48.858;10.128;2024-02-21T03:15:09;8.70;;;3.47;;
6376;SDS011;3221;48.858;10.128;2024-02-21T03:17:36;8.10;;;3.43;;
6376;SDS011;3221;48.858;10.128;2024-02-21T03:20:03;5.10;;;3.27;;
6376;SDS011;3221;48.858;10.128;2024-02-21T03:22:40;8.80;;;3.57;;
6376;SDS011;3221;48.858;10.128;2024-02-21T03:25:11;6.30;;;3.40;;
6376;SDS011;3221;48.858;10.128;2024-02-21T03:27:39;6.57;;;2.87;;
6376;SDS011;3221;48.858;10.128;2024-02-21T03:30:06;6.80;;;3.40;;
6376;SDS011;3221;48.858;10.128;2024-02-21T03:32:33;6.87;;;3.40;;
6376;SDS011;3221;48.858;10.128;2024-02-21T03:35:00;8.40;;;3.77;;
6376;SDS011;3221;48.858;10.128;2024-02-21T03:37:27;6.70;;;3.40;;
6376;SDS011;3221;48.858;10.128;2024-02-21T03:39:54;8.00;;;3.73;;
6376;SDS011;3221;48.858;10.128;2024-02-21T03:42:21;6.23;;;2.60;;
6376;SDS011;3221;48.858;10.128;2024-02-21T03:44:49;9.07;;;3.43;;
6376;SDS011;3221;48.858;10.128;2024-02-21T03:47:15;7.37;;;3.37;;
6376;SDS011;3221;48.858;10.128;2024-02-21T03:49:42;7.73;;;3.70;;
6376;SDS011;3221;48.858;10.128;2024-02-21T03:52:09;6.43;;;3.30;;
6376;SDS011;3221;48.858;10.128;2024-02-21T03:54:36;5.93;;;3.23;;
6376;SDS011;3221;48.858;10.128;2024-02-21T03:57:04;8.63;;;3.20;;
6376;SDS011;3221;48.858;10.128;2024-02-21T03:59:32;9.93;;;3.40;;
6376;SDS011;3221;48.858;10.128;2024-02-21T04:01:58;6.37;;;3.30;;
6376;SDS011;3221;48.858;10.128;2024-02-21T04:04:26;6.23;;;3.20;;
6376;SDS011;3221;48.858;10.128;2024-02-21T04:06:53;8.27;;;3.33;;
6376;SDS011;3221;48.858;10.128;2024-02-21T04:09:20;8.17;;;3.53;;
6376;SDS011;3221;48.858;10.128;2024-02-21T04:11:47;8.40;;;3.23;;
6376;SDS011;3221;48.858;10.128;2024-02-21T04:14:14;6.43;;;3.33;;
6376;SDS011;3221;48.858;10.128;2024-02-21T04:16:41;8.90;;;3.40;;
6376;SDS011;3221;48.858;10.128;2024-02-21T04:19:08;7.83;;;3.50;;
6376;SDS011;3221;48.858;10.128;2024-02-21T04:21:35;7.53;;;3.30;;
6376;SDS011;3221;48.858;10.128;2024-02-21T04:24:02;6.90;;;3.40;;
6376;SDS011;3221;48.858;10.128;2024-02-21T04:26:32;8.63;;;3.80;;
6376;SDS011;3221;48.858;10.128;2024-02-21T04:29:00;10.00;;;3.97;;
6376;SDS011;3221;48.858;10.128;2024-02-21T04:31:28;5.37;;;3.10;;
6376;SDS011;3221;48.858;10.128;2024-02-21T04:33:55;6.87;;;3.20;;
6376;SDS011;3221;48.858;10.128;2024-02-21T04:36:23;7.80;;;3.30;;
6376;SDS011;3221;48.858;10.128;2024-02-21T04:38:50;6.63;;;3.23;;
6376;SDS011;3221;48.858;10.128;2024-02-21T04:41:17;8.33;;;3.50;;
6376;SDS011;3221;48.858;10.128;2024-02-21T04:43:45;8.60;;;3.10;;
6376;SDS011;3221;48.858;10.128;2024-02-21T04:46:13;8.67;;;3.53;;
6376;SDS011;3221;48.858;10.128;2024-02-21T04:48:40;7.37;;;3.30;;
6376;SDS011;3221;48.858;10.128;2024-02-21T04:51:07;8.73;;;3.77;;
6376;SDS011;3221;48.858;10.128;2024-02-21T04:53:34;7.20;;;3.70;;
6376;SDS011;3221;48.858;10.128;2024-02-21T04:56:01;9.20;;;3.47;;
6376;SDS011;3221;48.858;10.128;2024-02-21T04:58:28;7.60;;;3.67;;
6376;SDS011;3221;48.858;10.128;2024-02-21T05:00:55;8.77;;;3.37;;
6376;SDS011;3221;48.858;10.128;2024-02-21T05:03:23;8.90;;;3.83;;
6376;SDS011;3221;48.858;10.128;2024-02-21T05:05:50;7.63;;;3.20;;
6376;SDS011;3221;48.858;10.128;2024-02-21T05:08:17;9.27;;;3.90;;
6376;SDS011;3221;48.858;10.128;2024-02-21T05:10:44;9.03;;;4.00;;
6376;SDS011;3221;48.858;10.128;2024-02-21T05:13:11;6.57;;;3.53;;
6376;SDS011;3221;48.858;10.128;2024-02-21T05:15:38;8.07;;;3.37;;
6376;SDS011;3221;48.858;10.128;2024-02-21T05:18:05;6.63;;;3.53;;
6376;SDS011;3221;48.858;10.128;2024-02-21T05:20:32;5.43;;;3.00;;
6376;SDS011;3221;48.858;10.128;2024-02-21T05:22:59;6.80;;;3.30;;
6376;SDS011;3221;48.858;10.128;2024-02-21T05:25:26;8.77;;;3.73;;
6376;SDS011;3221;48.858;10.128;2024-02-21T05:27:53;8.50;;;3.57;;
6376;SDS011;3221;48.858;10.128;2024-02-21T05:30:20;6.60;;;3.30;;
6376;SDS011;3221;48.858;10.128;2024-02-21T05:32:47;5.37;;;3.23;;
6376;SDS011;3221;48.858;10.128;2024-02-21T05:35:14;7.63;;;3.63;;
6376;SDS011;3221;48.858;10.128;2024-02-21T05:37:41;7.50;;;3.40;;
6376;SDS011;3221;48.858;10.128;2024-02-21T05:40:08;7.60;;;3.20;;
6376;SDS011;3221;48.858;10.128;2024-02-21T05:42:37;7.40;;;3.90;;
6376;SDS011;3221;48.858;10.128;2024-02-21T05:45:04;6.33;;;3.50;;
6376;SDS011;3221;48.858;10.128;2024-02-21T05:47:31;10.87;;;4.10;;
6376;SDS011;3221;48.858;10.128;2024-02-21T05:49:58;7.43;;;3.83;;
6376;SDS011;3221;48.858;10.128;2024-02-21T05:52:25;9.40;;;3.93;;
6376;SDS011;3221;48.858;10.128;2024-02-21T05:54:52;6.10;;;3.20;;
6376;SDS011;3221;48.858;10.128;2024-02-21T05:57:19;7.00;;;3.40;;
6376;SDS011;3221;48.858;10.128;2024-02-21T05:59:46;6.10;;;3.33;;
6376;SDS011;3221;48.858;10.128;2024-02-21T06:02:13;5.93;;;3.60;;
6376;SDS011;3221;48.858;10.128;2024-02-21T06:04:40;6.33;;;3.53;;
6376;SDS011;3221;48.858;10.128;2024-02-21T06:07:09;7.20;;;3.27;;
6376;SDS011;3221;48.858;10.128;2024-02-21T06:09:36;8.70;;;3.40;;
6376;SDS011;3221;48.858;10.128;2024-02-21T06:12:03;6.97;;;3.77;;
6376;SDS011;3221;48.858;10.128;2024-02-21T06:14:30;6.67;;;3.40;;
6376;SDS011;3221;48.858;10.128;2024-02-21T06:16:57;8.00;;;3.70;;
6376;SDS011;3221;48.858;10.128;2024-02-21T06:19:24;9.00;;;3.70;;
6376;SDS011;3221;48.858;10.128;2024-02-21T06:21:51;7.70;;;3.67;;
6376;SDS011;3221;48.858;10.128;2024-02-21T06:24:18;10.90;;;3.80;;
6376;SDS011;3221;48.858;10.128;2024-02-21T06:26:45;10.33;;;3.60;;
6376;SDS011;3221;48.858;10.128;2024-02-21T06:29:11;7.87;;;3.47;;
6376;SDS011;3221;48.858;10.128;2024-02-21T06:31:40;8.70;;;3.37;;
6376;SDS011;3221;48.858;10.128;2024-02-21T06:34:07;5.63;;;3.07;;
6376;SDS011;3221;48.858;10.128;2024-02-21T06:36:34;9.27;;;3.60;;
6376;SDS011;3221;48.858;10.128;2024-02-21T06:39:01;7.47;;;3.47;;
6376;SDS011;3221;48.858;10.128;2024-02-21T06:41:30;6.13;;;3.20;;
6376;SDS011;3221;48.858;10.128;2024-02-21T06:43:59;9.00;;;2.83;;
6376;SDS011;3221;48.858;10.128;2024-02-21T06:46:26;11.83;;;3.40;;
6376;SDS011;3221;48.858;10.128;2024-02-21T06:48:57;7.23;;;3.60;;
6376;SDS011;3221;48.858;10.128;2024-02-21T06:51:25;8.33;;;3.37;;
6376;SDS011;3221;48.858;10.128;2024-02-21T06:53:55;6.07;;;3.23;;
6376;SDS011;3221;48.858;10.128;2024-02-21T06:56:23;6.97;;;3.30;;
6376;SDS011;3221;48.858;10.128;2024-02-21T06:58:55;5.03;;;2.93;;
6376;SDS011;3221;48.858;10.128;2024-02-21T07:01:22;6.87;;;2.70;;
6376;SDS011;3221;48.858;10.128;2024-02-21T07:03:50;5.13;;;2.70;;
6376;SDS011;3221;48.858;10.128;2024-02-21T07:06:17;4.40;;;2.73;;
6376;SDS011;3221;48.858;10.128;2024-02-21T07:08:44;6.37;;;2.80;;
6376;SDS011;3221;48.858;10.128;2024-02-21T07:11:11;5.70;;;2.70;;
6376;SDS011;3221;48.858;10.128;2024-02-21T07:13:38;7.53;;;3.03;;
6376;SDS011;3221;48.858;10.128;2024-02-21T07:16:05;5.60;;;2.70;;
6376;SDS011;3221;48.858;10.128;2024-02-21T07:18:33;4.77;;;2.63;;
6376;SDS011;3221;48.858;10.128;2024-02-21T07:21:01;5.80;;;2.80;;
6376;SDS011;3221;48.858;10.128;2024-02-21T07:23:28;7.00;;;2.90;;
6376;SDS011;3221;48.858;10.128;2024-02-21T07:25:55;4.47;;;2.50;;
6376;SDS011;3221;48.858;10.128;2024-02-21T07:28:22;6.07;;;2.90;;
6376;SDS011;3221;48.858;10.128;2024-02-21T07:30:49;8.70;;;3.20;;
6376;SDS011;3221;48.858;10.128;2024-02-21T07:33:15;5.33;;;2.70;;
6376;SDS011;3221;48.858;10.128;2024-02-21T07:35:42;6.37;;;2.73;;
6376;SDS011;3221;48.858;10.128;2024-02-21T07:38:11;5.87;;;2.70;;
6376;SDS011;3221;48.858;10.128;2024-02-21T07:40:39;6.93;;;2.77;;
6376;SDS011;3221;48.858;10.128;2024-02-21T07:43:07;7.57;;;2.57;;
6376;SDS011;3221;48.858;10.128;2024-02-21T07:45:34;8.77;;;2.70;;
6376;SDS011;3221;48.858;10.128;2024-02-21T07:48:01;9.70;;;3.03;;
6376;SDS011;3221;48.858;10.128;2024-02-21T07:50:28;5.17;;;2.77;;
6376;SDS011;3221;48.858;10.128;2024-02-21T07:52:55;7.27;;;2.93;;
6376;SDS011;3221;48.858;10.128;2024-02-21T07:55:22;5.93;;;3.20;;
6376;SDS011;3221;48.858;10.128;2024-02-21T07:57:49;8.17;;;3.07;;
6376;SDS011;3221;48.858;10.128;2024-02-21T08:00:16;4.97;;;2.63;;
6376;SDS011;3221;48.858;10.128;2024-02-21T08:02:47;4.80;;;2.40;;
6376;SDS011;3221;48.858;10.128;2024-02-21T08:05:14;6.33;;;2.63;;
6376;SDS011;3221;48.858;10.128;2024-02-21T08:07:41;5.17;;;2.60;;
6376;SDS011;3221;48.858;10.128;2024-02-21T08:10:08;5.63;;;2.60;;
6376;SDS011;3221;48.858;10.128;2024-02-21T08:12:35;4.93;;;2.43;;
6376;SDS011;3221;48.858;10.128;2024-02-21T08:15:02;4.27;;;2.40;;
6376;SDS011;3221;48.858;10.128;2024-02-21T08:17:30;8.43;;;2.93;;
6376;SDS011;3221;48.858;10.128;2024-02-21T08:19:57;5.57;;;2.73;;
6376;SDS011;3221;48.858;10.128;2024-02-21T08:22:24;4.17;;;2.33;;
6376;SDS011;3221;48.858;10.128;2024-02-21T08:24:52;5.80;;;2.70;;
6376;SDS011;3221;48.858;10.128;2024-02-21T08:27:20;8.87;;;2.80;;
6376;SDS011;3221;48.858;10.128;2024-02-21T08:29:47;8.03;;;2.67;;
6376;SDS011;3221;48.858;10.128;2024-02-21T08:32:14;7.87;;;2.90;;
6376;SDS011;3221;48.858;10.128;2024-02-21T08:34:40;8.00;;;2.77;;
6376;SDS011;3221;48.858;10.128;2024-02-21T08:37:07;6.07;;;2.40;;
6376;SDS011;3221;48.858;10.128;2024-02-21T08:39:37;4.87;;;2.30;;
6376;SDS011;3221;48.858;10.128;2024-02-21T08:42:04;4.60;;;2.63;;
6376;SDS011;3221;48.858;10.128;2024-02-21T08:44:31;5.37;;;2.70;;
6376;SDS011;3221;48.858;10.128;2024-02-21T08:46:58;6.37;;;2.83;;
6376;SDS011;3221;48.858;10.128;2024-02-21T08:49:26;5.93;;;2.70;;
6376;SDS011;3221;48.858;10.128;2024-02-21T08:52:00;5.53;;;2.70;;
6376;SDS011;3221;48.858;10.128;2024-02-21T08:54:27;6.00;;;2.90;;
6376;SDS011;3221;48.858;10.128;2024-02-21T08:56:55;6.43;;;2.63;;
6376;SDS011;3221;48.858;10.128;2024-02-21T08:59:23;6.90;;;2.60;;
6376;SDS011;3221;48.858;10.128;2024-02-21T09:01:50;6.17;;;2.77;;
6376;SDS011;3221;48.858;10.128;2024-02-21T09:04:19;5.27;;;2.53;;
6376;SDS011;3221;48.858;10.128;2024-02-21T09:06:46;7.00;;;3.00;;
6376;SDS011;3221;48.858;10.128;2024-02-21T09:09:13;6.80;;;2.67;;
6376;SDS011;3221;48.858;10.128;2024-02-21T09:11:40;4.57;;;2.60;;
6376;SDS011;3221;48.858;10.128;2024-02-21T09:14:07;6.70;;;2.70;;
6376;SDS011;3221;48.858;10.128;2024-02-21T09:16:34;5.40;;;2.53;;
6376;SDS011;3221;48.858;10.128;2024-02-21T09:19:01;4.27;;;2.60;;
6376;SDS011;3221;48.858;10.128;2024-02-21T09:21:28;5.63;;;3.03;;
6376;SDS011;3221;48.858;10.128;2024-02-21T09:23:55;7.80;;;3.20;;
6376;SDS011;3221;48.858;10.128;2024-02-21T09:26:25;5.87;;;3.17;;
6376;SDS011;3221;48.858;10.128;2024-02-21T09:28:52;5.77;;;3.17;;
6376;SDS011;3221;48.858;10.128;2024-02-21T09:31:20;4.10;;;2.87;;
6376;SDS011;3221;48.858;10.128;2024-02-21T09:33:47;5.93;;;3.20;;
6376;SDS011;3221;48.858;10.128;2024-02-21T09:36:14;7.10;;;2.70;;
6376;SDS011;3221;48.858;10.128;2024-02-21T09:38:41;6.67;;;2.73;;
6376;SDS011;3221;48.858;10.128;2024-02-21T09:43:35;6.90;;;2.77;;
6376;SDS011;3221;48.858;10.128;2024-02-21T09:46:06;4.10;;;2.73;;
6376;SDS011;3221;48.858;10.128;2024-02-21T09:48:48;5.27;;;2.90;;
6376;SDS011;3221;48.858;10.128;2024-02-21T09:51:34;7.20;;;3.27;;
6376;SDS011;3221;48.858;10.128;2024-02-21T09:54:05;5.80;;;2.93;;
6376;SDS011;3221;48.858;10.128;2024-02-21T09:56:44;6.97;;;2.43;;
6376;SDS011;3221;48.858;10.128;2024-02-21T09:59:15;8.03;;;3.00;;
6376;SDS011;3221;48.858;10.128;2024-02-21T10:01:43;7.17;;;3.07;;
6376;SDS011;3221;48.858;10.128;2024-02-21T10:04:11;4.27;;;2.80;;
6376;SDS011;3221;48.858;10.128;2024-02-21T10:06:38;6.23;;;2.53;;
6376;SDS011;3221;48.858;10.128;2024-02-21T10:09:06;3.83;;;2.37;;
6376;SDS011;3221;48.858;10.128;2024-02-21T10:11:33;4.60;;;2.60;;
6376;SDS011;3221;48.858;10.128;2024-02-21T10:14:06;3.67;;;2.33;;
6376;SDS011;3221;48.858;10.128;2024-02-21T10:16:35;4.70;;;2.43;;
6376;SDS011;3221;48.858;10.128;2024-02-21T10:19:03;5.87;;;2.63;;
6376;SDS011;3221;48.858;10.128;2024-02-21T10:21:30;4.97;;;2.90;;
6376;SDS011;3221;48.858;10.128;2024-02-21T10:23:58;5.87;;;2.87;;
6376;SDS011;3221;48.858;10.128;2024-02-21T10:26:24;5.07;;;2.77;;
6376;SDS011;3221;48.858;10.128;2024-02-21T10:28:51;7.00;;;3.60;;
6376;SDS011;3221;48.858;10.128;2024-02-21T10:31:21;5.17;;;3.00;;
6376;SDS011;3221;48.858;10.128;2024-02-21T10:34:02;5.77;;;3.17;;
6376;SDS011;3221;48.858;10.128;2024-02-21T10:36:29;7.73;;;2.90;;
6376;SDS011;3221;48.858;10.128;2024-02-21T10:38:56;6.30;;;2.30;;
6376;SDS011;3221;48.858;10.128;2024-02-21T10:41:24;5.60;;;2.47;;
6376;SDS011;3221;48.858;10.128;2024-02-21T10:43:54;4.73;;;2.90;;
6376;SDS011;3221;48.858;10.128;2024-02-21T10:46:23;5.17;;;2.87;;
6376;SDS011;3221;48.858;10.128;2024-02-21T10:49:07;4.00;;;2.40;;
6376;SDS011;3221;48.858;10.128;2024-02-21T10:51:37;3.97;;;2.70;;
6376;SDS011;3221;48.858;10.128;2024-02-21T10:56:52;4.53;;;2.30;;
6376;SDS011;3221;48.858;10.128;2024-02-21T10:59:22;4.67;;;2.50;;
6376;SDS011;3221;48.858;10.128;2024-02-21T11:01:50;3.87;;;2.00;;
6376;SDS011;3221;48.858;10.128;2024-02-21T11:04:21;5.00;;;2.30;;
6376;SDS011;3221;48.858;10.128;2024-02-21T11:06:49;4.63;;;2.07;;
6376;SDS011;3221;48.858;10.128;2024-02-21T11:09:18;4.93;;;2.67;;
6376;SDS011;3221;48.858;10.128;2024-02-21T11:12:02;4.73;;;2.40;;
6376;SDS011;3221;48.858;10.128;2024-02-21T11:14:30;5.30;;;2.20;;
6376;SDS011;3221;48.858;10.128;2024-02-21T11:17:18;4.83;;;2.30;;
6376;SDS011;3221;48.858;10.128;2024-02-21T11:19:47;5.57;;;3.17;;
6376;SDS011;3221;48.858;10.128;2024-02-21T11:22:18;7.67;;;3.30;;
6376;SDS011;3221;48.858;10.128;2024-02-21T11:24:49;5.57;;;2.73;;
6376;SDS011;3221;48.858;10.128;2024-02-21T11:27:16;4.67;;;2.53;;
6376;SDS011;3221;48.858;10.128;2024-02-21T11:29:54;6.23;;;2.67;;
6376;SDS011;3221;48.858;10.128;2024-02-21T11:32:22;4.80;;;2.37;;
6376;SDS011;3221;48.858;10.128;2024-02-21T11:34:55;4.47;;;2.60;;
6376;SDS011;3221;48.858;10.128;2024-02-21T11:37:29;5.90;;;2.70;;
6376;SDS011;3221;48.858;10.128;2024-02-21T11:40:00;4.77;;;2.50;;
6376;SDS011;3221;48.858;10.128;2024-02-21T11:42:29;5.07;;;2.67;;
6376;SDS011;3221;48.858;10.128;2024-02-21T11:44:57;3.37;;;2.53;;
6376;SDS011;3221;48.858;10.128;2024-02-21T11:47:24;6.13;;;2.80;;
6376;SDS011;3221;48.858;10.128;2024-02-21T11:49:51;5.17;;;2.83;;
6376;SDS011;3221;48.858;10.128;2024-02-21T11:52:22;5.87;;;2.40;;
6376;SDS011;3221;48.858;10.128;2024-02-21T11:54:52;11.07;;;5.70;;
6376;SDS011;3221;48.858;10.128;2024-02-21T11:57:21;8.30;;;3.70;;
6376;SDS011;3221;48.858;10.128;2024-02-21T11:59:48;6.30;;;3.37;;
6376;SDS011;3221;48.858;10.128;2024-02-21T12:02:23;7.57;;;2.90;;
6376;SDS011;3221;48.858;10.128;2024-02-21T12:04:50;5.20;;;3.00;;
6376;SDS011;3221;48.858;10.128;2024-02-21T12:07:18;6.67;;;3.40;;
6376;SDS011;3221;48.858;10.128;2024-02-21T12:09:45;4.43;;;2.90;;
6376;SDS011;3221;48.858;10.128;2024-02-21T12:12:12;6.67;;;3.07;;
6376;SDS011;3221;48.858;10.128;2024-02-21T12:14:39;5.63;;;3.30;;
6376;SDS011;3221;48.858;10.128;2024-02-21T12:17:06;5.00;;;2.50;;
6376;SDS011;3221;48.858;10.128;2024-02-21T12:19:33;7.80;;;3.30;;
6376;SDS011;3221;48.858;10.128;2024-02-21T12:22:01;5.67;;;3.27;;
6376;SDS011;3221;48.858;10.128;2024-02-21T12:24:32;4.87;;;2.73;;
6376;SDS011;3221;48.858;10.128;2024-02-21T12:26:59;5.17;;;2.67;;
6376;SDS011;3221;48.858;10.128;2024-02-21T12:29:30;6.37;;;3.07;;
6376;SDS011;3221;48.858;10.128;2024-02-21T12:31:56;5.93;;;2.70;;
6376;SDS011;3221;48.858;10.128;2024-02-21T12:34:23;6.80;;;3.13;;
6376;SDS011;3221;48.858;10.128;2024-02-21T12:36:54;5.60;;;2.93;;
6376;SDS011;3221;48.858;10.128;2024-02-21T12:39:21;4.90;;;2.50;;
6376;SDS011;3221;48.858;10.128;2024-02-21T12:41:47;5.03;;;2.40;;
6376;SDS011;3221;48.858;10.128;2024-02-21T12:44:14;6.80;;;2.73;;
6376;SDS011;3221;48.858;10.128;2024-02-21T12:46:43;4.70;;;2.47;;
6376;SDS011;3221;48.858;10.128;2024-02-21T12:49:10;4.83;;;2.60;;
6376;SDS011;3221;48.858;10.128;2024-02-21T12:51:37;4.43;;;3.00;;
6376;SDS011;3221;48.858;10.128;2024-02-21T12:54:05;6.70;;;2.77;;
6376;SDS011;3221;48.858;10.128;2024-02-21T12:56:32;4.37;;;2.30;;
6376;SDS011;3221;48.858;10.128;2024-02-21T12:58:59;3.63;;;2.30;;
6376;SDS011;3221;48.858;10.128;2024-02-21T13:01:26;5.13;;;2.37;;
6376;SDS011;3221;48.858;10.128;2024-02-21T13:03:54;4.40;;;2.50;;
6376;SDS011;3221;48.858;10.128;2024-02-21T13:06:22;7.30;;;2.67;;
6376;SDS011;3221;48.858;10.128;2024-02-21T13:08:50;4.10;;;2.43;;
6376;SDS011;3221;48.858;10.128;2024-02-21T13:11:17;4.37;;;2.30;;
6376;SDS011;3221;48.858;10.128;2024-02-21T13:13:44;5.40;;;2.70;;
6376;SDS011;3221;48.858;10.128;2024-02-21T13:16:11;3.63;;;2.20;;
6376;SDS011;3221;48.858;10.128;2024-02-21T13:18:38;5.07;;;2.50;;
6376;SDS011;3221;48.858;10.128;2024-02-21T13:21:06;3.40;;;2.30;;
6376;SDS011;3221;48.858;10.128;2024-02-21T13:23:33;5.77;;;2.50;;
6376;SDS011;3221;48.858;10.128;2024-02-21T13:26:00;5.00;;;2.40;;
6376;SDS011;3221;48.858;10.128;2024-02-21T13:28:27;3.67;;;2.40;;
6376;SDS011;3221;48.858;10.128;2024-02-21T13:30:54;3.53;;;2.27;;
6376;SDS011;3221;48.858;10.128;2024-02-21T13:33:21;3.17;;;2.03;;
6376;SDS011;3221;48.858;10.128;2024-02-21T13:35:48;3.30;;;2.13;;
6376;SDS011;3221;48.858;10.128;2024-02-21T13:38:15;3.97;;;2.20;;
6376;SDS011;3221;48.858;10.128;2024-02-21T13:40:42;6.17;;;2.30;;
6376;SDS011;3221;48.858;10.128;2024-02-21T13:43:09;5.57;;;2.23;;
6376;SDS011;3221;48.858;10.128;2024-02-21T13:45:37;2.73;;;2.20;;
6376;SDS011;3221;48.858;10.128;2024-02-21T13:48:04;2.17;;;1.80;;
6376;SDS011;3221;48.858;10.128;2024-02-21T13:50:32;4.57;;;2.23;;
6376;SDS011;3221;48.858;10.128;2024-02-21T13:53:08;3.80;;;2.07;;
6376;SDS011;3221;48.858;10.128;2024-02-21T13:55:36;2.80;;;2.00;;
6376;SDS011;3221;48.858;10.128;2024-02-21T13:58:03;2.90;;;2.00;;
6376;SDS011;3221;48.858;10.128;2024-02-21T14:00:30;4.13;;;2.20;;
6376;SDS011;3221;48.858;10.128;2024-02-21T14:02:59;4.03;;;2.20;;
6376;SDS011;3221;48.858;10.128;2024-02-21T14:05:27;4.70;;;2.20;;
6376;SDS011;3221;48.858;10.128;2024-02-21T14:07:54;3.80;;;2.00;;
6376;SDS011;3221;48.858;10.128;2024-02-21T14:10:21;4.00;;;1.90;;
6376;SDS011;3221;48.858;10.128;2024-02-21T14:12:49;5.63;;;2.40;;
6376;SDS011;3221;48.858;10.128;2024-02-21T14:15:16;5.87;;;2.60;;
6376;SDS011;3221;48.858;10.128;2024-02-21T14:17:43;4.40;;;2.17;;
6376;SDS011;3221;48.858;10.128;2024-02-21T14:20:10;5.10;;;2.37;;
6376;SDS011;3221;48.858;10.128;2024-02-21T14:22:41;3.87;;;2.20;;
6376;SDS011;3221;48.858;10.128;2024-02-21T14:25:08;5.47;;;2.73;;
6376;SDS011;3221;48.858;10.128;2024-02-21T14:27:35;4.00;;;2.20;;
6376;SDS011;3221;48.858;10.128;2024-02-21T14:30:05;6.43;;;2.50;;
6376;SDS011;3221;48.858;10.128;2024-02-21T14:32:32;4.73;;;2.10;;
6376;SDS011;3221;48.858;10.128;2024-02-21T14:34:59;7.63;;;2.37;;
6376;SDS011;3221;48.858;10.128;2024-02-21T14:37:31;2.77;;;2.03;;
6376;SDS011;3221;48.858;10.128;2024-02-21T14:39:58;5.27;;;2.20;;
6376;SDS011;3221;48.858;10.128;2024-02-21T14:42:27;1.97;;;1.73;;
6376;SDS011;3221;48.858;10.128;2024-02-21T14:44:54;3.10;;;2.20;;
6376;SDS011;3221;48.858;10.128;2024-02-21T14:47:30;4.25;;;2.30;;
6376;SDS011;3221;48.858;10.128;2024-02-21T14:49:58;15.00;;;5.80;;
6376;SDS011;3221;48.858;10.128;2024-02-21T14:52:26;10.00;;;4.10;;
6376;SDS011;3221;48.858;10.128;2024-02-21T14:54:54;5.10;;;2.53;;
6376;SDS011;3221;48.858;10.128;2024-02-21T14:57:22;3.10;;;2.10;;
6376;SDS011;3221;48.858;10.128;2024-02-21T14:59:49;4.10;;;2.13;;
6376;SDS011;3221;48.858;10.128;2024-02-21T15:02:18;5.37;;;2.80;;
6376;SDS011;3221;48.858;10.128;2024-02-21T15:04:45;3.03;;;2.23;;
6376;SDS011;3221;48.858;10.128;2024-02-21T15:07:12;5.30;;;2.40;;
6376;SDS011;3221;48.858;10.128;2024-02-21T15:09:39;3.30;;;2.00;;
6376;SDS011;3221;48.858;10.128;2024-02-21T15:12:06;5.23;;;2.47;;